sensor_id;sensor_type;location;lat;lon;timestamp;P1;durP1;ratioP1;P2;durP2;ratioP2
5999;SDS011;3028;49.468;7.694;2022-07-29T00:00:22;1.83;;;1.63;;
5999;SDS011;3028;49.468;7.694;2022-07-29T00:02:27;2.50;;;2.10;;
5999;SDS011;3028;49.468;7.694;2022-07-29T00:04:29;1.70;;;1.60;;
5999;SDS011;3028;49.468;7.694;2022-07-29T00:06:31;1.60;;;1.50;;
5999;SDS011;3028;49.468;7.694;2022-07-29T00:08:32;2.20;;;2.00;;
5999;SDS011;3028;49.468;7.694;2022-07-29T00:10:34;2.97;;;1.80;;
5999;SDS011;3028;49.468;7.694;2022-07-29T00:12:36;2.75;;;2.05;;
5999;SDS011;3028;49.468;7.694;2022-07-29T00:14:38;2.45;;;2.25;;
5999;SDS011;3028;49.468;7.694;2022-07-29T00:16:40;3.78;;;1.73;;
5999;SDS011;3028;49.468;7.694;2022-07-29T00:18:41;1.48;;;1.38;;
5999;SDS011;3028;49.468;7.694;2022-07-29T00:20:43;4.18;;;1.80;;
5999;SDS011;3028;49.468;7.694;2022-07-29T00:22:45;2.70;;;1.63;;
5999;SDS011;3028;49.468;7.694;2022-07-29T00:24:47;1.70;;;1.45;;
5999;SDS011;3028;49.468;7.694;2022-07-29T00:26:49;2.45;;;1.50;;
5999;SDS011;3028;49.468;7.694;2022-07-29T00:28:51;1.73;;;1.63;;
5999;SDS011;3028;49.468;7.694;2022-07-29T00:31:13;2.38;;;2.15;;
5999;SDS011;3028;49.468;7.694;2022-07-29T00:33:16;1.63;;;1.52;;
5999;SDS011;3028;49.468;7.694;2022-07-29T00:35:18;1.90;;;1.80;;
5999;SDS011;3028;49.468;7.694;2022-07-29T00:37:38;2.33;;;1.90;;
5999;SDS011;3028;49.468;7.694;2022-07-29T00:39:40;1.42;;;1.33;;
5999;SDS011;3028;49.468;7.694;2022-07-29T00:41:41;2.00;;;1.88;;
5999;SDS011;3028;49.468;7.694;2022-07-29T00:43:43;2.22;;;1.75;;
5999;SDS011;3028;49.468;7.694;2022-07-29T00:45:45;1.98;;;1.80;;
5999;SDS011;3028;49.468;7.694;2022-07-29T00:47:47;3.20;;;1.73;;
5999;SDS011;3028;49.468;7.694;2022-07-29T00:49:49;3.33;;;1.95;;
5999;SDS011;3028;49.468;7.694;2022-07-29T00:51:50;2.00;;;1.80;;
5999;SDS011;3028;49.468;7.694;2022-07-29T00:53:52;2.00;;;1.58;;
5999;SDS011;3028;49.468;7.694;2022-07-29T00:55:54;2.63;;;2.40;;
5999;SDS011;3028;49.468;7.694;2022-07-29T00:57:56;3.80;;;2.28;;
5999;SDS011;3028;49.468;7.694;2022-07-29T00:59:59;1.75;;;1.65;;
5999;SDS011;3028;49.468;7.694;2022-07-29T01:02:04;2.78;;;2.20;;
5999;SDS011;3028;49.468;7.694;2022-07-29T01:04:06;1.70;;;1.60;;
5999;SDS011;3028;49.468;7.694;2022-07-29T01:06:08;3.22;;;1.83;;
5999;SDS011;3028;49.468;7.694;2022-07-29T01:08:14;2.38;;;2.17;;
5999;SDS011;3028;49.468;7.694;2022-07-29T01:10:16;2.10;;;1.88;;
5999;SDS011;3028;49.468;7.694;2022-07-29T01:12:23;2.65;;;2.45;;
5999;SDS011;3028;49.468;7.694;2022-07-29T01:14:26;2.47;;;2.28;;
5999;SDS011;3028;49.468;7.694;2022-07-29T01:16:33;2.22;;;2.13;;
5999;SDS011;3028;49.468;7.694;2022-07-29T01:18:42;2.20;;;2.03;;
5999;SDS011;3028;49.468;7.694;2022-07-29T01:21:05;2.45;;;1.60;;
5999;SDS011;3028;49.468;7.694;2022-07-29T01:30:42;2.58;;;1.90;;
5999;SDS011;3028;49.468;7.694;2022-07-29T01:32:47;2.58;;;1.90;;
5999;SDS011;3028;49.468;7.694;2022-07-29T01:39:34;2.05;;;1.83;;
5999;SDS011;3028;49.468;7.694;2022-07-29T01:41:43;2.20;;;2.05;;
5999;SDS011;3028;49.468;7.694;2022-07-29T01:43:56;4.05;;;2.17;;
5999;SDS011;3028;49.468;7.694;2022-07-29T01:46:01;3.42;;;3.13;;
5999;SDS011;3028;49.468;7.694;2022-07-29T01:48:06;2.55;;;2.35;;
5999;SDS011;3028;49.468;7.694;2022-07-29T01:50:14;4.35;;;2.40;;
5999;SDS011;3028;49.468;7.694;2022-07-29T01:52:26;2.17;;;1.90;;
5999;SDS011;3028;49.468;7.694;2022-07-29T01:54:40;2.17;;;2.08;;
5999;SDS011;3028;49.468;7.694;2022-07-29T01:56:48;2.17;;;1.95;;
5999;SDS011;3028;49.468;7.694;2022-07-29T01:58:51;3.45;;;2.80;;
5999;SDS011;3028;49.468;7.694;2022-07-29T02:00:53;2.55;;;2.35;;
5999;SDS011;3028;49.468;7.694;2022-07-29T02:02:59;2.10;;;1.80;;
5999;SDS011;3028;49.468;7.694;2022-07-29T02:05:04;2.75;;;2.50;;
5999;SDS011;3028;49.468;7.694;2022-07-29T02:07:07;3.10;;;2.13;;
5999;SDS011;3028;49.468;7.694;2022-07-29T02:09:12;2.33;;;2.13;;
5999;SDS011;3028;49.468;7.694;2022-07-29T02:11:14;1.98;;;1.77;;
5999;SDS011;3028;49.468;7.694;2022-07-29T02:13:16;2.42;;;2.22;;
5999;SDS011;3028;49.468;7.694;2022-07-29T02:15:19;2.45;;;2.25;;
5999;SDS011;3028;49.468;7.694;2022-07-29T02:17:25;2.60;;;2.40;;
5999;SDS011;3028;49.468;7.694;2022-07-29T02:19:29;2.50;;;1.95;;
5999;SDS011;3028;49.468;7.694;2022-07-29T02:21:32;2.42;;;2.22;;
5999;SDS011;3028;49.468;7.694;2022-07-29T02:23:35;2.55;;;2.15;;
5999;SDS011;3028;49.468;7.694;2022-07-29T02:25:52;8.02;;;2.10;;
5999;SDS011;3028;49.468;7.694;2022-07-29T02:27:57;4.28;;;2.70;;
5999;SDS011;3028;49.468;7.694;2022-07-29T02:30:00;2.10;;;2.00;;
5999;SDS011;3028;49.468;7.694;2022-07-29T02:32:04;2.28;;;2.08;;
5999;SDS011;3028;49.468;7.694;2022-07-29T02:34:07;2.47;;;2.28;;
5999;SDS011;3028;49.468;7.694;2022-07-29T02:36:09;4.43;;;4.03;;
5999;SDS011;3028;49.468;7.694;2022-07-29T02:38:12;2.92;;;2.08;;
5999;SDS011;3028;49.468;7.694;2022-07-29T02:40:34;2.13;;;1.92;;
5999;SDS011;3028;49.468;7.694;2022-07-29T02:42:37;2.30;;;2.10;;
5999;SDS011;3028;49.468;7.694;2022-07-29T02:44:41;2.78;;;2.30;;
5999;SDS011;3028;49.468;7.694;2022-07-29T02:49:09;2.55;;;1.90;;
5999;SDS011;3028;49.468;7.694;2022-07-29T02:51:19;2.65;;;2.35;;
5999;SDS011;3028;49.468;7.694;2022-07-29T02:53:45;2.97;;;2.47;;
5999;SDS011;3028;49.468;7.694;2022-07-29T02:55:57;3.15;;;2.10;;
5999;SDS011;3028;49.468;7.694;2022-07-29T02:58:01;3.17;;;2.33;;
5999;SDS011;3028;49.468;7.694;2022-07-29T03:00:05;2.38;;;2.17;;
5999;SDS011;3028;49.468;7.694;2022-07-29T03:02:09;2.70;;;2.50;;
5999;SDS011;3028;49.468;7.694;2022-07-29T03:04:12;2.25;;;2.05;;
5999;SDS011;3028;49.468;7.694;2022-07-29T03:06:17;2.80;;;2.60;;
5999;SDS011;3028;49.468;7.694;2022-07-29T03:08:38;2.15;;;1.80;;
5999;SDS011;3028;49.468;7.694;2022-07-29T03:10:42;3.20;;;2.53;;
5999;SDS011;3028;49.468;7.694;2022-07-29T03:12:45;3.60;;;2.30;;
5999;SDS011;3028;49.468;7.694;2022-07-29T03:14:48;6.63;;;2.50;;
5999;SDS011;3028;49.468;7.694;2022-07-29T03:16:49;2.72;;;2.53;;
5999;SDS011;3028;49.468;7.694;2022-07-29T03:18:52;2.40;;;2.20;;
5999;SDS011;3028;49.468;7.694;2022-07-29T03:20:54;2.60;;;2.40;;
5999;SDS011;3028;49.468;7.694;2022-07-29T03:22:56;3.42;;;3.13;;
5999;SDS011;3028;49.468;7.694;2022-07-29T03:24:58;2.40;;;2.20;;
5999;SDS011;3028;49.468;7.694;2022-07-29T03:27:09;2.65;;;2.45;;
5999;SDS011;3028;49.468;7.694;2022-07-29T03:29:11;2.83;;;2.63;;
5999;SDS011;3028;49.468;7.694;2022-07-29T03:31:14;2.78;;;2.58;;
5999;SDS011;3028;49.468;7.694;2022-07-29T03:33:16;3.53;;;3.00;;
5999;SDS011;3028;49.468;7.694;2022-07-29T03:35:20;2.97;;;2.17;;
5999;SDS011;3028;49.468;7.694;2022-07-29T03:37:22;4.47;;;2.63;;
5999;SDS011;3028;49.468;7.694;2022-07-29T03:39:25;2.88;;;2.63;;
5999;SDS011;3028;49.468;7.694;2022-07-29T03:41:30;2.90;;;2.50;;
5999;SDS011;3028;49.468;7.694;2022-07-29T03:43:34;2.83;;;2.63;;
5999;SDS011;3028;49.468;7.694;2022-07-29T03:45:50;2.35;;;2.00;;
5999;SDS011;3028;49.468;7.694;2022-07-29T03:47:55;3.22;;;2.70;;
5999;SDS011;3028;49.468;7.694;2022-07-29T03:50:02;2.67;;;2.38;;
5999;SDS011;3028;49.468;7.694;2022-07-29T03:52:11;4.85;;;2.28;;
5999;SDS011;3028;49.468;7.694;2022-07-29T03:54:12;2.60;;;2.40;;
5999;SDS011;3028;49.468;7.694;2022-07-29T03:56:15;2.83;;;2.53;;
5999;SDS011;3028;49.468;7.694;2022-07-29T03:58:18;2.97;;;2.55;;
5999;SDS011;3028;49.468;7.694;2022-07-29T04:00:20;2.30;;;2.10;;
5999;SDS011;3028;49.468;7.694;2022-07-29T04:02:24;9.82;;;2.58;;
5999;SDS011;3028;49.468;7.694;2022-07-29T04:04:34;1.85;;;1.75;;
5999;SDS011;3028;49.468;7.694;2022-07-29T04:06:43;3.65;;;1.95;;
5999;SDS011;3028;49.468;7.694;2022-07-29T04:08:45;5.55;;;2.88;;
5999;SDS011;3028;49.468;7.694;2022-07-29T04:10:47;5.95;;;1.98;;
5999;SDS011;3028;49.468;7.694;2022-07-29T04:12:49;3.30;;;3.00;;
5999;SDS011;3028;49.468;7.694;2022-07-29T04:14:51;3.22;;;2.97;;
5999;SDS011;3028;49.468;7.694;2022-07-29T04:16:53;2.47;;;2.28;;
5999;SDS011;3028;49.468;7.694;2022-07-29T04:18:54;3.33;;;3.10;;
5999;SDS011;3028;49.468;7.694;2022-07-29T04:20:56;3.33;;;3.05;;
5999;SDS011;3028;49.468;7.694;2022-07-29T04:23:02;3.10;;;2.80;;
5999;SDS011;3028;49.468;7.694;2022-07-29T04:25:03;3.50;;;3.20;;
5999;SDS011;3028;49.468;7.694;2022-07-29T04:27:05;4.00;;;2.47;;
5999;SDS011;3028;49.468;7.694;2022-07-29T04:29:07;3.03;;;2.72;;
5999;SDS011;3028;49.468;7.694;2022-07-29T04:31:09;3.10;;;2.85;;
5999;SDS011;3028;49.468;7.694;2022-07-29T04:33:12;4.43;;;2.85;;
5999;SDS011;3028;49.468;7.694;2022-07-29T04:35:13;3.20;;;3.00;;
5999;SDS011;3028;49.468;7.694;2022-07-29T04:37:15;2.75;;;2.47;;
5999;SDS011;3028;49.468;7.694;2022-07-29T04:39:17;3.35;;;3.15;;
5999;SDS011;3028;49.468;7.694;2022-07-29T04:41:23;3.13;;;2.90;;
5999;SDS011;3028;49.468;7.694;2022-07-29T04:43:34;2.70;;;2.20;;
5999;SDS011;3028;49.468;7.694;2022-07-29T04:45:37;3.42;;;2.53;;
5999;SDS011;3028;49.468;7.694;2022-07-29T04:47:38;4.50;;;3.15;;
5999;SDS011;3028;49.468;7.694;2022-07-29T04:49:40;5.38;;;3.50;;
5999;SDS011;3028;49.468;7.694;2022-07-29T04:51:42;3.75;;;3.47;;
5999;SDS011;3028;49.468;7.694;2022-07-29T04:53:44;5.45;;;2.95;;
5999;SDS011;3028;49.468;7.694;2022-07-29T04:55:45;3.40;;;2.70;;
5999;SDS011;3028;49.468;7.694;2022-07-29T04:57:47;3.92;;;2.58;;
5999;SDS011;3028;49.468;7.694;2022-07-29T04:59:49;4.75;;;3.35;;
5999;SDS011;3028;49.468;7.694;2022-07-29T05:01:50;3.03;;;2.83;;
5999;SDS011;3028;49.468;7.694;2022-07-29T05:03:52;2.80;;;2.60;;
5999;SDS011;3028;49.468;7.694;2022-07-29T05:06:00;3.25;;;3.03;;
5999;SDS011;3028;49.468;7.694;2022-07-29T05:08:02;4.03;;;2.72;;
5999;SDS011;3028;49.468;7.694;2022-07-29T05:10:04;3.50;;;3.20;;
5999;SDS011;3028;49.468;7.694;2022-07-29T05:12:06;3.42;;;3.13;;
5999;SDS011;3028;49.468;7.694;2022-07-29T05:14:08;3.25;;;2.95;;
5999;SDS011;3028;49.468;7.694;2022-07-29T05:16:10;3.13;;;2.92;;
5999;SDS011;3028;49.468;7.694;2022-07-29T05:18:12;3.15;;;2.85;;
5999;SDS011;3028;49.468;7.694;2022-07-29T05:20:14;3.03;;;2.72;;
5999;SDS011;3028;49.468;7.694;2022-07-29T05:22:15;4.05;;;3.05;;
5999;SDS011;3028;49.468;7.694;2022-07-29T05:24:17;3.80;;;3.25;;
5999;SDS011;3028;49.468;7.694;2022-07-29T05:26:20;3.45;;;3.05;;
5999;SDS011;3028;49.468;7.694;2022-07-29T05:28:22;3.45;;;3.15;;
5999;SDS011;3028;49.468;7.694;2022-07-29T05:30:24;3.38;;;2.70;;
5999;SDS011;3028;49.468;7.694;2022-07-29T05:32:26;2.88;;;2.67;;
5999;SDS011;3028;49.468;7.694;2022-07-29T05:34:31;3.05;;;2.75;;
5999;SDS011;3028;49.468;7.694;2022-07-29T05:36:32;2.75;;;2.55;;
5999;SDS011;3028;49.468;7.694;2022-07-29T05:38:35;3.67;;;3.13;;
5999;SDS011;3028;49.468;7.694;2022-07-29T05:40:37;4.15;;;3.75;;
5999;SDS011;3028;49.468;7.694;2022-07-29T05:42:39;3.97;;;3.65;;
5999;SDS011;3028;49.468;7.694;2022-07-29T05:44:40;4.20;;;3.90;;
5999;SDS011;3028;49.468;7.694;2022-07-29T05:46:42;3.70;;;3.40;;
5999;SDS011;3028;49.468;7.694;2022-07-29T05:48:45;6.72;;;4.05;;
5999;SDS011;3028;49.468;7.694;2022-07-29T05:50:46;3.55;;;3.33;;
5999;SDS011;3028;49.468;7.694;2022-07-29T05:52:48;4.78;;;4.28;;
5999;SDS011;3028;49.468;7.694;2022-07-29T05:54:50;7.10;;;4.15;;
5999;SDS011;3028;49.468;7.694;2022-07-29T05:56:52;4.05;;;3.85;;
5999;SDS011;3028;49.468;7.694;2022-07-29T05:58:54;4.05;;;3.60;;
5999;SDS011;3028;49.468;7.694;2022-07-29T06:00:56;3.83;;;3.50;;
5999;SDS011;3028;49.468;7.694;2022-07-29T06:03:00;3.38;;;3.08;;
5999;SDS011;3028;49.468;7.694;2022-07-29T06:05:02;4.55;;;3.58;;
5999;SDS011;3028;49.468;7.694;2022-07-29T06:07:06;3.88;;;3.45;;
5999;SDS011;3028;49.468;7.694;2022-07-29T06:09:08;4.72;;;3.15;;
5999;SDS011;3028;49.468;7.694;2022-07-29T06:11:13;3.67;;;3.38;;
5999;SDS011;3028;49.468;7.694;2022-07-29T06:13:15;4.55;;;4.05;;
5999;SDS011;3028;49.468;7.694;2022-07-29T06:15:17;6.88;;;4.68;;
5999;SDS011;3028;49.468;7.694;2022-07-29T06:17:19;6.15;;;3.75;;
5999;SDS011;3028;49.468;7.694;2022-07-29T06:19:20;3.22;;;2.92;;
5999;SDS011;3028;49.468;7.694;2022-07-29T06:21:22;4.50;;;3.80;;
5999;SDS011;3028;49.468;7.694;2022-07-29T06:23:24;4.68;;;4.07;;
5999;SDS011;3028;49.468;7.694;2022-07-29T06:25:29;4.60;;;4.20;;
5999;SDS011;3028;49.468;7.694;2022-07-29T06:27:31;3.15;;;2.92;;
5999;SDS011;3028;49.468;7.694;2022-07-29T06:29:33;3.38;;;2.83;;
5999;SDS011;3028;49.468;7.694;2022-07-29T06:31:34;3.20;;;3.00;;
5999;SDS011;3028;49.468;7.694;2022-07-29T06:33:36;3.75;;;3.33;;
5999;SDS011;3028;49.468;7.694;2022-07-29T06:35:38;3.03;;;2.63;;
5999;SDS011;3028;49.468;7.694;2022-07-29T06:37:42;2.97;;;2.65;;
5999;SDS011;3028;49.468;7.694;2022-07-29T06:39:46;2.95;;;2.72;;
5999;SDS011;3028;49.468;7.694;2022-07-29T06:41:49;4.70;;;3.13;;
5999;SDS011;3028;49.468;7.694;2022-07-29T06:43:51;3.13;;;2.92;;
5999;SDS011;3028;49.468;7.694;2022-07-29T06:46:15;2.80;;;2.38;;
5999;SDS011;3028;49.468;7.694;2022-07-29T06:48:21;2.85;;;2.53;;
5999;SDS011;3028;49.468;7.694;2022-07-29T06:50:23;2.22;;;1.95;;
5999;SDS011;3028;49.468;7.694;2022-07-29T06:52:25;4.70;;;2.85;;
5999;SDS011;3028;49.468;7.694;2022-07-29T06:54:27;3.92;;;1.90;;
5999;SDS011;3028;49.468;7.694;2022-07-29T06:56:32;1.77;;;1.67;;
5999;SDS011;3028;49.468;7.694;2022-07-29T06:58:40;2.90;;;2.03;;
5999;SDS011;3028;49.468;7.694;2022-07-29T07:00:42;2.45;;;2.08;;
5999;SDS011;3028;49.468;7.694;2022-07-29T07:02:43;3.03;;;2.13;;
5999;SDS011;3028;49.468;7.694;2022-07-29T07:04:47;2.55;;;2.00;;
5999;SDS011;3028;49.468;7.694;2022-07-29T07:06:50;4.07;;;1.92;;
5999;SDS011;3028;49.468;7.694;2022-07-29T07:08:52;7.82;;;1.88;;
5999;SDS011;3028;49.468;7.694;2022-07-29T07:10:53;4.18;;;1.70;;
5999;SDS011;3028;49.468;7.694;2022-07-29T07:12:56;2.67;;;2.00;;
5999;SDS011;3028;49.468;7.694;2022-07-29T07:14:58;4.15;;;2.45;;
5999;SDS011;3028;49.468;7.694;2022-07-29T07:16:59;4.03;;;1.77;;
5999;SDS011;3028;49.468;7.694;2022-07-29T07:19:04;2.40;;;2.20;;
5999;SDS011;3028;49.468;7.694;2022-07-29T07:21:06;4.38;;;1.90;;
5999;SDS011;3028;49.468;7.694;2022-07-29T07:23:07;1.95;;;1.73;;
5999;SDS011;3028;49.468;7.694;2022-07-29T07:25:09;7.68;;;1.88;;
5999;SDS011;3028;49.468;7.694;2022-07-29T07:27:12;8.00;;;1.83;;
5999;SDS011;3028;49.468;7.694;2022-07-29T07:29:14;7.30;;;1.35;;
5999;SDS011;3028;49.468;7.694;2022-07-29T07:31:16;5.13;;;1.73;;
5999;SDS011;3028;49.468;7.694;2022-07-29T07:33:18;2.35;;;2.05;;
5999;SDS011;3028;49.468;7.694;2022-07-29T07:35:19;4.53;;;1.58;;
5999;SDS011;3028;49.468;7.694;2022-07-29T07:37:21;2.08;;;1.25;;
5999;SDS011;3028;49.468;7.694;2022-07-29T07:39:23;2.85;;;1.58;;
5999;SDS011;3028;49.468;7.694;2022-07-29T07:41:25;2.00;;;1.45;;
5999;SDS011;3028;49.468;7.694;2022-07-29T07:43:32;1.80;;;1.50;;
5999;SDS011;3028;49.468;7.694;2022-07-29T07:45:34;6.38;;;1.80;;
5999;SDS011;3028;49.468;7.694;2022-07-29T07:47:38;2.95;;;1.30;;
5999;SDS011;3028;49.468;7.694;2022-07-29T07:49:42;3.58;;;1.60;;
5999;SDS011;3028;49.468;7.694;2022-07-29T07:51:45;1.70;;;1.33;;
5999;SDS011;3028;49.468;7.694;2022-07-29T07:53:51;7.50;;;1.55;;
5999;SDS011;3028;49.468;7.694;2022-07-29T07:55:54;2.67;;;1.95;;
5999;SDS011;3028;49.468;7.694;2022-07-29T07:58:13;3.97;;;1.67;;
5999;SDS011;3028;49.468;7.694;2022-07-29T08:00:15;2.45;;;1.50;;
5999;SDS011;3028;49.468;7.694;2022-07-29T08:02:17;9.05;;;1.77;;
5999;SDS011;3028;49.468;7.694;2022-07-29T08:04:19;5.70;;;1.67;;
5999;SDS011;3028;49.468;7.694;2022-07-29T08:06:28;11.15;;;2.20;;
5999;SDS011;3028;49.468;7.694;2022-07-29T08:08:33;3.15;;;1.50;;
5999;SDS011;3028;49.468;7.694;2022-07-29T08:10:41;2.60;;;1.90;;
5999;SDS011;3028;49.468;7.694;2022-07-29T08:12:55;6.18;;;1.90;;
5999;SDS011;3028;49.468;7.694;2022-07-29T08:14:56;11.38;;;1.92;;
5999;SDS011;3028;49.468;7.694;2022-07-29T08:16:58;3.22;;;1.90;;
5999;SDS011;3028;49.468;7.694;2022-07-29T08:19:03;4.35;;;2.10;;
5999;SDS011;3028;49.468;7.694;2022-07-29T08:21:05;5.20;;;2.15;;
5999;SDS011;3028;49.468;7.694;2022-07-29T08:23:07;4.35;;;1.70;;
5999;SDS011;3028;49.468;7.694;2022-07-29T08:25:12;4.53;;;1.80;;
5999;SDS011;3028;49.468;7.694;2022-07-29T08:27:17;4.22;;;2.25;;
5999;SDS011;3028;49.468;7.694;2022-07-29T08:29:39;4.53;;;2.10;;
5999;SDS011;3028;49.468;7.694;2022-07-29T08:31:40;3.80;;;1.70;;
5999;SDS011;3028;49.468;7.694;2022-07-29T08:33:42;2.33;;;1.92;;
5999;SDS011;3028;49.468;7.694;2022-07-29T08:35:44;3.28;;;1.63;;
5999;SDS011;3028;49.468;7.694;2022-07-29T08:37:47;8.98;;;2.25;;
5999;SDS011;3028;49.468;7.694;2022-07-29T08:39:49;3.90;;;1.67;;
5999;SDS011;3028;49.468;7.694;2022-07-29T08:41:51;2.05;;;1.85;;
5999;SDS011;3028;49.468;7.694;2022-07-29T08:43:57;6.50;;;1.85;;
5999;SDS011;3028;49.468;7.694;2022-07-29T08:45:59;3.53;;;1.50;;
5999;SDS011;3028;49.468;7.694;2022-07-29T08:48:01;4.22;;;2.22;;
5999;SDS011;3028;49.468;7.694;2022-07-29T08:50:03;2.33;;;2.08;;
5999;SDS011;3028;49.468;7.694;2022-07-29T08:52:06;3.15;;;2.17;;
5999;SDS011;3028;49.468;7.694;2022-07-29T08:54:08;2.92;;;1.77;;
5999;SDS011;3028;49.468;7.694;2022-07-29T08:56:11;5.13;;;1.73;;
5999;SDS011;3028;49.468;7.694;2022-07-29T08:58:20;4.00;;;2.20;;
5999;SDS011;3028;49.468;7.694;2022-07-29T09:00:25;6.88;;;2.05;;
5999;SDS011;3028;49.468;7.694;2022-07-29T09:02:32;2.47;;;2.00;;
5999;SDS011;3028;49.468;7.694;2022-07-29T09:04:37;7.82;;;2.05;;
5999;SDS011;3028;49.468;7.694;2022-07-29T09:06:42;3.55;;;2.63;;
5999;SDS011;3028;49.468;7.694;2022-07-29T09:08:45;3.92;;;2.35;;
5999;SDS011;3028;49.468;7.694;2022-07-29T09:10:47;4.07;;;2.20;;
5999;SDS011;3028;49.468;7.694;2022-07-29T09:12:49;3.72;;;2.35;;
5999;SDS011;3028;49.468;7.694;2022-07-29T09:14:51;2.42;;;2.15;;
5999;SDS011;3028;49.468;7.694;2022-07-29T09:16:54;3.85;;;2.17;;
5999;SDS011;3028;49.468;7.694;2022-07-29T09:18:57;9.98;;;2.08;;
5999;SDS011;3028;49.468;7.694;2022-07-29T09:20:59;2.88;;;2.25;;
5999;SDS011;3028;49.468;7.694;2022-07-29T09:23:20;5.05;;;2.80;;
5999;SDS011;3028;49.468;7.694;2022-07-29T09:25:34;3.03;;;1.85;;
5999;SDS011;3028;49.468;7.694;2022-07-29T09:27:35;4.07;;;2.35;;
5999;SDS011;3028;49.468;7.694;2022-07-29T09:29:37;2.40;;;1.80;;
5999;SDS011;3028;49.468;7.694;2022-07-29T09:31:40;6.70;;;1.77;;
5999;SDS011;3028;49.468;7.694;2022-07-29T09:33:43;4.72;;;2.30;;
5999;SDS011;3028;49.468;7.694;2022-07-29T09:35:45;3.38;;;1.85;;
5999;SDS011;3028;49.468;7.694;2022-07-29T09:37:57;2.55;;;2.35;;
5999;SDS011;3028;49.468;7.694;2022-07-29T09:39:59;3.85;;;2.05;;
5999;SDS011;3028;49.468;7.694;2022-07-29T09:42:02;4.13;;;1.77;;
5999;SDS011;3028;49.468;7.694;2022-07-29T09:44:07;3.65;;;3.00;;
5999;SDS011;3028;49.468;7.694;2022-07-29T09:46:12;2.72;;;2.03;;
5999;SDS011;3028;49.468;7.694;2022-07-29T09:48:18;3.67;;;2.58;;
5999;SDS011;3028;49.468;7.694;2022-07-29T09:50:34;2.45;;;1.80;;
5999;SDS011;3028;49.468;7.694;2022-07-29T09:52:49;4.07;;;2.05;;
5999;SDS011;3028;49.468;7.694;2022-07-29T09:54:51;2.83;;;1.80;;
5999;SDS011;3028;49.468;7.694;2022-07-29T09:56:55;5.30;;;2.47;;
5999;SDS011;3028;49.468;7.694;2022-07-29T09:59:07;3.15;;;2.20;;
5999;SDS011;3028;49.468;7.694;2022-07-29T10:01:09;2.45;;;1.95;;
5999;SDS011;3028;49.468;7.694;2022-07-29T10:03:11;4.28;;;1.85;;
5999;SDS011;3028;49.468;7.694;2022-07-29T10:07:21;2.50;;;1.95;;
5999;SDS011;3028;49.468;7.694;2022-07-29T10:09:23;1.83;;;1.67;;
5999;SDS011;3028;49.468;7.694;2022-07-29T10:11:25;3.75;;;2.50;;
5999;SDS011;3028;49.468;7.694;2022-07-29T10:13:47;10.35;;;2.00;;
5999;SDS011;3028;49.468;7.694;2022-07-29T10:15:49;4.03;;;2.10;;
5999;SDS011;3028;49.468;7.694;2022-07-29T10:17:52;8.57;;;2.25;;
5999;SDS011;3028;49.468;7.694;2022-07-29T10:19:55;11.52;;;3.70;;
5999;SDS011;3028;49.468;7.694;2022-07-29T10:22:01;4.35;;;1.98;;
5999;SDS011;3028;49.468;7.694;2022-07-29T10:24:04;4.45;;;2.40;;
5999;SDS011;3028;49.468;7.694;2022-07-29T10:26:15;2.78;;;2.58;;
5999;SDS011;3028;49.468;7.694;2022-07-29T10:28:17;3.08;;;1.77;;
5999;SDS011;3028;49.468;7.694;2022-07-29T10:30:19;3.92;;;1.45;;
5999;SDS011;3028;49.468;7.694;2022-07-29T10:32:31;4.50;;;2.13;;
5999;SDS011;3028;49.468;7.694;2022-07-29T10:44:20;2.10;;;1.88;;
5999;SDS011;3028;49.468;7.694;2022-07-29T10:46:24;3.08;;;1.98;;
5999;SDS011;3028;49.468;7.694;2022-07-29T10:48:27;2.83;;;1.90;;
5999;SDS011;3028;49.468;7.694;2022-07-29T10:50:40;3.53;;;2.08;;
5999;SDS011;3028;49.468;7.694;2022-07-29T10:53:07;3.90;;;2.17;;
5999;SDS011;3028;49.468;7.694;2022-07-29T10:55:33;2.40;;;1.60;;
5999;SDS011;3028;49.468;7.694;2022-07-29T10:57:37;4.35;;;1.85;;
5999;SDS011;3028;49.468;7.694;2022-07-29T11:02:55;10.10;;;1.77;;
5999;SDS011;3028;49.468;7.694;2022-07-29T11:09:18;3.25;;;1.90;;
5999;SDS011;3028;49.468;7.694;2022-07-29T11:11:37;6.05;;;1.95;;
5999;SDS011;3028;49.468;7.694;2022-07-29T11:13:52;2.90;;;2.03;;
5999;SDS011;3028;49.468;7.694;2022-07-29T11:15:57;3.58;;;1.85;;
5999;SDS011;3028;49.468;7.694;2022-07-29T11:22:37;3.08;;;1.80;;
5999;SDS011;3028;49.468;7.694;2022-07-29T11:24:47;6.80;;;2.40;;
5999;SDS011;3028;49.468;7.694;2022-07-29T11:27:39;8.27;;;2.25;;
5999;SDS011;3028;49.468;7.694;2022-07-29T11:29:48;5.05;;;1.70;;
5999;SDS011;3028;49.468;7.694;2022-07-29T11:31:57;2.38;;;1.52;;
5999;SDS011;3028;49.468;7.694;2022-07-29T11:34:17;3.67;;;1.50;;
5999;SDS011;3028;49.468;7.694;2022-07-29T11:36:28;5.88;;;1.70;;
5999;SDS011;3028;49.468;7.694;2022-07-29T11:38:30;5.50;;;1.60;;
5999;SDS011;3028;49.468;7.694;2022-07-29T11:40:32;3.03;;;1.38;;
5999;SDS011;3028;49.468;7.694;2022-07-29T11:47:22;2.08;;;1.38;;
5999;SDS011;3028;49.468;7.694;2022-07-29T11:49:27;3.65;;;1.88;;
5999;SDS011;3028;49.468;7.694;2022-07-29T11:51:33;4.90;;;1.80;;
5999;SDS011;3028;49.468;7.694;2022-07-29T11:53:35;1.95;;;1.75;;
5999;SDS011;3028;49.468;7.694;2022-07-29T11:55:37;7.47;;;2.15;;
5999;SDS011;3028;49.468;7.694;2022-07-29T11:57:56;7.60;;;1.88;;
5999;SDS011;3028;49.468;7.694;2022-07-29T12:00:05;3.53;;;1.90;;
5999;SDS011;3028;49.468;7.694;2022-07-29T12:02:13;3.78;;;1.60;;
5999;SDS011;3028;49.468;7.694;2022-07-29T12:04:51;1.48;;;1.38;;
5999;SDS011;3028;49.468;7.694;2022-07-29T12:06:55;10.93;;;1.52;;
5999;SDS011;3028;49.468;7.694;2022-07-29T12:09:05;2.45;;;1.63;;
5999;SDS011;3028;49.468;7.694;2022-07-29T12:11:15;2.53;;;1.63;;
5999;SDS011;3028;49.468;7.694;2022-07-29T12:13:22;5.25;;;1.30;;
5999;SDS011;3028;49.468;7.694;2022-07-29T12:15:38;4.70;;;1.50;;
5999;SDS011;3028;49.468;7.694;2022-07-29T12:17:50;2.17;;;1.55;;
5999;SDS011;3028;49.468;7.694;2022-07-29T12:19:53;1.48;;;1.23;;
5999;SDS011;3028;49.468;7.694;2022-07-29T12:21:56;1.90;;;1.30;;
5999;SDS011;3028;49.468;7.694;2022-07-29T12:24:02;2.85;;;1.23;;
5999;SDS011;3028;49.468;7.694;2022-07-29T12:26:09;3.75;;;1.48;;
5999;SDS011;3028;49.468;7.694;2022-07-29T12:28:25;3.67;;;1.48;;
5999;SDS011;3028;49.468;7.694;2022-07-29T12:30:35;4.07;;;1.10;;
5999;SDS011;3028;49.468;7.694;2022-07-29T12:32:43;1.35;;;1.05;;
5999;SDS011;3028;49.468;7.694;2022-07-29T12:34:46;2.63;;;1.67;;
5999;SDS011;3028;49.468;7.694;2022-07-29T12:36:48;1.30;;;1.20;;
5999;SDS011;3028;49.468;7.694;2022-07-29T12:38:50;2.42;;;1.10;;
5999;SDS011;3028;49.468;7.694;2022-07-29T12:40:57;2.72;;;1.42;;
5999;SDS011;3028;49.468;7.694;2022-07-29T12:43:14;3.65;;;1.42;;
5999;SDS011;3028;49.468;7.694;2022-07-29T12:45:27;2.92;;;1.10;;
5999;SDS011;3028;49.468;7.694;2022-07-29T12:47:30;2.28;;;1.40;;
5999;SDS011;3028;49.468;7.694;2022-07-29T12:49:31;2.55;;;1.35;;
5999;SDS011;3028;49.468;7.694;2022-07-29T12:51:39;1.38;;;1.20;;
5999;SDS011;3028;49.468;7.694;2022-07-29T12:53:41;1.58;;;1.48;;
5999;SDS011;3028;49.468;7.694;2022-07-29T12:56:15;1.73;;;1.25;;
5999;SDS011;3028;49.468;7.694;2022-07-29T12:58:38;12.07;;;1.40;;
5999;SDS011;3028;49.468;7.694;2022-07-29T13:00:41;3.22;;;1.50;;
5999;SDS011;3028;49.468;7.694;2022-07-29T13:02:42;2.08;;;1.40;;
5999;SDS011;3028;49.468;7.694;2022-07-29T13:04:45;3.60;;;1.55;;
5999;SDS011;3028;49.468;7.694;2022-07-29T13:07:05;4.93;;;1.88;;
5999;SDS011;3028;49.468;7.694;2022-07-29T13:11:34;3.38;;;1.20;;
5999;SDS011;3028;49.468;7.694;2022-07-29T13:13:49;2.17;;;1.50;;
5999;SDS011;3028;49.468;7.694;2022-07-29T13:16:07;5.07;;;1.23;;
5999;SDS011;3028;49.468;7.694;2022-07-29T13:20:33;2.80;;;1.50;;
5999;SDS011;3028;49.468;7.694;2022-07-29T13:22:36;4.15;;;1.88;;
5999;SDS011;3028;49.468;7.694;2022-07-29T13:24:48;1.63;;;1.20;;
5999;SDS011;3028;49.468;7.694;2022-07-29T13:26:54;3.25;;;1.83;;
5999;SDS011;3028;49.468;7.694;2022-07-29T13:28:55;6.45;;;1.40;;
5999;SDS011;3028;49.468;7.694;2022-07-29T13:30:57;2.13;;;1.30;;
5999;SDS011;3028;49.468;7.694;2022-07-29T13:32:59;1.58;;;1.20;;
5999;SDS011;3028;49.468;7.694;2022-07-29T13:35:01;2.35;;;1.17;;
5999;SDS011;3028;49.468;7.694;2022-07-29T13:37:05;2.40;;;1.10;;
5999;SDS011;3028;49.468;7.694;2022-07-29T13:39:07;1.88;;;0.90;;
5999;SDS011;3028;49.468;7.694;2022-07-29T13:41:09;2.65;;;1.10;;
5999;SDS011;3028;49.468;7.694;2022-07-29T13:43:11;2.15;;;1.08;;
5999;SDS011;3028;49.468;7.694;2022-07-29T13:45:13;1.38;;;1.05;;